Terminal Aerodrome Forecast
Issued by NWS

Home | Current Version | Previous Version | Text Only | Print | Product List | Glossary On
Versions: 1 2 3 4 5 6 7 8 9 10 11 12 13 14 15 16 17 18
620
FTUS43 KFGF 302328
TAFDVL
TAF
KDVL 302328Z 3100/3124 12007KT P6SM -RA BKN090 OVC110
     FM310200 08013KT P6SM VCTS OVC025CB
     FM310700 09012KT P6SM VCTS OVC008CB
     FM311100 21010KT P6SM VCSH BKN010
     FM311300 23007KT P6SM BKN015
     FM311800 23009KT P6SM BKN035
     FM311900 23009KT P6SM VCSH BKN040=

USA.gov is the U.S. government's official web portal to all federal, state and local government web resources and services.